»·PEaware :: SWA1095 KBUR-KLAS

SWA1095 :: KBUR-KLAS

FLIGHT INFORMATION

Flight Status: Arrived
Operator:
Southwest Airlines
More flights by this operator :: More flights under this callsign
Pilot: Marissa K. (19829)
Aircraft: BOEING 737-800
(B738)
More flights by this aircraft type
Origin: KBUR Bob Hope-Burbank
United States
Destination: KLAS McCarran Intl
United States
More flights between these airports :: More routes between these airports
Route: +SLAPP1 MISEN KEPEC6
File this flight plan on PilotEdge
Remarks: RMK / FOR I-5 RATING
Altitude:
(Current/Filed)
25,000ft
Speed:
(Current/Filed)
475kts
Departed: 11-Oct-18 03:33 PM
Arrived: 11-Oct-18 04:21 PM
Distance/Time
Traveled:
194nm/0:48
Distance/Time
To Go:
Arrived

Flight Plot

Page will automatically refresh every two minutes.

Flight plan parsing failed; only flown route is shown


Map Options




Map Legend


Flown Route
Filed Route
Departure Airport
Arrival Airport
Navaid (VOR, NDB)
Fix

Horizontal Profiles

Position Reports

Time Latitude Longitude Heading Altitude Ground
Speed
11-Oct-18 14:51 34.196771 -118.351466 180 699ft 0kts
11-Oct-18 14:52 34.196771 -118.351466 180 699ft 0kts
11-Oct-18 14:53 34.196771 -118.351466 180 699ft 0kts
11-Oct-18 14:54 34.196771 -118.351466 180 699ft 0kts
11-Oct-18 14:55 34.196771 -118.351466 180 699ft 0kts
11-Oct-18 14:56 34.196771 -118.351466 180 699ft 0kts
11-Oct-18 14:57 34.196771 -118.351466 180 699ft 0kts
11-Oct-18 14:58 34.196771 -118.351466 180 699ft 0kts
11-Oct-18 14:59 34.196771 -118.351466 180 699ft 0kts
11-Oct-18 15:00 34.196771 -118.351466 180 699ft 0kts
11-Oct-18 15:01 34.196771 -118.351466 180 699ft 0kts
11-Oct-18 15:02 34.196771 -118.351466 180 699ft 0kts
11-Oct-18 15:03 34.196771 -118.351466 180 699ft 0kts
11-Oct-18 15:04 34.196771 -118.351466 180 699ft 0kts
11-Oct-18 15:05 34.196771 -118.351466 180 699ft 0kts
11-Oct-18 15:06 34.196771 -118.351466 180 699ft 0kts
11-Oct-18 15:07 34.196771 -118.351466 180 699ft 0kts
11-Oct-18 15:08 34.196771 -118.351466 180 699ft 0kts
11-Oct-18 15:09 34.196771 -118.351466 180 699ft 0kts
11-Oct-18 15:10 34.196771 -118.351466 180 699ft 0kts
11-Oct-18 15:11 34.196771 -118.351466 180 699ft 0kts
11-Oct-18 15:12 34.196771 -118.351466 180 699ft 0kts
11-Oct-18 15:13 34.196771 -118.351466 180 699ft 0kts
11-Oct-18 15:14 34.196771 -118.351466 180 699ft 0kts
11-Oct-18 15:15 34.196771 -118.351466 180 699ft 0kts
11-Oct-18 15:16 34.196968 -118.351418 210 699ft 2kts
11-Oct-18 15:17 34.197163 -118.350948 271 698ft 0kts
11-Oct-18 15:18 34.197163 -118.350948 271 698ft 0kts
11-Oct-18 15:19 34.197163 -118.350948 271 698ft 0kts
11-Oct-18 15:20 34.197163 -118.350948 271 698ft 0kts
11-Oct-18 15:21 34.197163 -118.350949 271 698ft 0kts
11-Oct-18 15:22 34.197185 -118.353436 270 703ft 11kts
11-Oct-18 15:23 34.200111 -118.355732 347 715ft 21kts
11-Oct-18 15:24 34.205883 -118.357336 347 739ft 16kts
11-Oct-18 15:25 34.210321 -118.358552 347 761ft 18kts
11-Oct-18 15:26 34.211333 -118.358875 336 765ft 0kts
11-Oct-18 15:27 34.211333 -118.358875 336 765ft 0kts
11-Oct-18 15:28 34.211333 -118.358875 336 765ft 0kts
11-Oct-18 15:29 34.211333 -118.358875 336 765ft 0kts
11-Oct-18 15:30 34.211333 -118.358875 336 765ft 0kts
11-Oct-18 15:31 34.211333 -118.358875 336 765ft 0kts
11-Oct-18 15:32 34.211333 -118.358875 336 765ft 0kts
11-Oct-18 15:33 34.211333 -118.358875 336 765ft 0kts
11-Oct-18 15:34 34.211371 -118.358896 335 765ft 4kts
11-Oct-18 15:35 34.207766 -118.359159 167 752ft 81kts
11-Oct-18 15:36 34.172229 -118.353738 201 1902ft 181kts
11-Oct-18 15:37 34.138118 -118.403081 282 4323ft 183kts
11-Oct-18 15:38 34.170094 -118.427705 351 6536ft 188kts
11-Oct-18 15:39 34.222357 -118.436438 351 9211ft 197kts
11-Oct-18 15:40 34.286508 -118.446931 351 12165ft 207kts
11-Oct-18 15:41 34.334725 -118.453938 351 14001ft 219kts
11-Oct-18 15:42 34.404104 -118.462610 351 14004ft 214kts
11-Oct-18 15:43 34.456338 -118.446007 76 14743ft 229kts
11-Oct-18 15:44 34.461591 -118.381270 87 16670ft 240kts
11-Oct-18 15:45 34.485602 -118.307939 36 18768ft 249kts
11-Oct-18 15:46 34.540080 -118.253956 34 20752ft 262kts
11-Oct-18 15:47 34.597659 -118.196780 34 22589ft 274kts
11-Oct-18 15:48 34.656586 -118.135520 50 24260ft 291kts
11-Oct-18 15:49 34.681770 -118.038972 80 24916ft 327kts
11-Oct-18 15:50 34.696904 -117.920852 88 24908ft 382kts
11-Oct-18 15:51 34.703887 -117.785425 87 24901ft 429kts
11-Oct-18 15:52 34.710157 -117.634473 89 24921ft 468kts
11-Oct-18 15:53 34.722057 -117.474774 73 24933ft 479kts
11-Oct-18 15:54 34.769338 -117.297437 72 24913ft 479kts
11-Oct-18 15:55 34.803448 -117.169588 72 24905ft 481kts
11-Oct-18 15:56 34.844596 -117.013997 73 24888ft 486kts
11-Oct-18 15:57 34.885600 -116.857793 76 24885ft 485kts
11-Oct-18 15:58 34.931505 -116.704479 60 24894ft 483kts
11-Oct-18 15:59 35.006137 -116.572591 58 24893ft 466kts
11-Oct-18 16:00 35.078589 -116.444642 59 24850ft 462kts
11-Oct-18 16:01 35.153125 -116.336952 48 23905ft 455kts
11-Oct-18 16:02 35.242025 -116.227246 49 23905ft 455kts
11-Oct-18 16:03 35.330231 -116.116821 49 23906ft 456kts
11-Oct-18 16:04 35.418424 -116.005773 49 23907ft 456kts
11-Oct-18 16:05 35.506068 -115.894920 49 23908ft 457kts
11-Oct-18 16:06 35.609740 -115.763328 48 17561ft 460kts
11-Oct-18 16:07 35.680413 -115.673241 46 13036ft 414kts
11-Oct-18 16:08 35.755220 -115.587783 25 13017ft 329kts
11-Oct-18 16:09 35.839520 -115.570606 4 13017ft 309kts
11-Oct-18 16:10 35.925215 -115.565807 4 13005ft 309kts
11-Oct-18 16:11 35.989573 -115.510061 67 13004ft 299kts
11-Oct-18 16:12 36.018291 -115.419205 69 11949ft 295kts
11-Oct-18 16:13 36.029706 -115.327992 96 10518ft 271kts
11-Oct-18 16:14 36.022348 -115.239031 95 9437ft 261kts
11-Oct-18 16:15 36.020659 -115.155624 71 9423ft 214kts
11-Oct-18 16:16 36.054287 -115.096645 52 8377ft 215kts
11-Oct-18 16:17 36.092699 -115.044944 40 7149ft 196kts
11-Oct-18 16:18 36.138692 -115.023400 4 5822ft 190kts
11-Oct-18 16:19 36.176499 -115.061629 286 4517ft 195kts
11-Oct-18 16:20 36.153469 -115.109434 212 4298ft 169kts
11-Oct-18 16:21 36.114828 -115.142426 212 2752ft 186kts
11-Oct-18 16:22 36.080079 -115.164001 202 2156ft 51kts
11-Oct-18 16:23 36.075232 -115.166354 143 2175ft 11kts
11-Oct-18 16:24 36.075085 -115.164300 91 2170ft 0kts
11-Oct-18 16:25 36.075129 -115.161791 64 2163ft 22kts
11-Oct-18 16:26 36.078062 -115.158119 90 2143ft 23kts
11-Oct-18 16:27 36.078822 -115.152609 59 2120ft 20kts
11-Oct-18 16:28 36.082382 -115.152453 324 2111ft 0kts
11-Oct-18 16:29 36.082382 -115.152453 324 2111ft 0kts
11-Oct-18 16:30 36.082382 -115.152453 324 2111ft 0kts
11-Oct-18 16:31 36.082382 -115.152453 324 2111ft 0kts

Navigation Log

Ident Type
Flight plan parsing failed, navigation log unavailable